Time;durP1;ratioP1;P1;durP2;ratioP2;P2;SDS_P1;SDS_P2;PMS_P1;PMS_P2;Temp;Humidity;BMP_temperature;BMP_pressure;BME280_temperature;BME280_humidity;BME280_pressure;Samples;Min_cycle;Max_cycle;Signal;HPM_P1;HPM_P2
2023/10/19 00:00:49;;;;;;;2.00;0.57;;;14.80;78.30;;;;;;5022691;28;20041;-76
2023/10/19 00:03:17;;;;;;;1.05;0.50;;;14.80;78.30;;;;;;5022983;28;20539;-75
2023/10/19 00:05:45;;;;;;;4.00;0.73;;;14.80;78.30;;;;;;5033840;28;20025;-76
2023/10/19 00:08:20;;;;;;;1.60;0.70;;;14.70;78.20;;;;;;5016451;28;20037;-76
2023/10/19 00:13:37;;;;;;;2.25;0.65;;;14.70;78.30;;;;;;5013736;28;20755;-76
2023/10/19 00:16:17;;;;;;;2.80;0.63;;;14.80;78.40;;;;;;5019861;28;20044;-77
2023/10/19 00:18:44;;;;;;;2.20;0.63;;;14.70;78.20;;;;;;5016941;28;20181;-76
2023/10/19 00:21:12;;;;;;;5.95;1.20;;;14.70;78.20;;;;;;5023535;28;20033;-77
2023/10/19 00:23:39;;;;;;;2.35;0.60;;;14.60;78.00;;;;;;5022465;28;20025;-76
2023/10/19 00:26:10;;;;;;;2.55;0.57;;;14.60;78.10;;;;;;5023389;28;20029;-77
2023/10/19 00:28:40;;;;;;;4.72;0.90;;;14.70;78.20;;;;;;5024642;28;20034;-77
2023/10/19 00:31:10;;;;;;;3.13;0.70;;;14.70;78.20;;;;;;5020809;28;20025;-77
2023/10/19 00:33:40;;;;;;;2.53;0.75;;;14.60;78.00;;;;;;5014649;28;20034;-77
2023/10/19 00:36:13;;;;;;;4.13;0.93;;;14.60;78.10;;;;;;5005933;28;20033;-77
2023/10/19 00:39:00;;;;;;;3.70;0.50;;;14.70;78.20;;;;;;5023795;28;20061;-77
2023/10/19 00:41:30;;;;;;;3.03;0.85;;;14.60;78.00;;;;;;5013955;28;20025;-77
2023/10/19 00:44:02;;;;;;;3.90;1.02;;;14.60;78.00;;;;;;5017148;28;20049;-76
2023/10/19 00:46:42;;;;;;;4.60;0.68;;;14.60;78.00;;;;;;5014640;28;20021;-76
2023/10/19 00:49:13;;;;;;;1.88;0.70;;;14.60;78.00;;;;;;5017036;28;20053;-77
2023/10/19 00:51:54;;;;;;;3.35;1.83;;;14.60;78.10;;;;;;5016930;28;20064;-76
2023/10/19 00:54:33;;;;;;;4.90;0.90;;;14.60;78.10;;;;;;5018638;28;20688;-77
2023/10/19 00:57:06;;;;;;;4.30;0.90;;;14.60;78.10;;;;;;5015806;28;20481;-76
2023/10/19 00:59:38;;;;;;;2.40;0.85;;;14.70;78.20;;;;;;5019586;28;20057;-76
2023/10/19 01:02:51;;;;;;;3.97;0.75;;;14.60;78.00;;;;;;5006801;28;20753;-76
2023/10/19 01:04:55;;;;;;;4.90;0.80;;;14.70;78.20;;;;;;5011287;28;20037;-77
2023/10/19 01:09:53;;;;;;;4.18;0.55;;;14.70;78.30;;;;;;5020835;28;20030;-76
2023/10/19 01:12:33;;;;;;;2.83;0.68;;;14.70;78.30;;;;;;5016627;28;20026;-75
2023/10/19 01:15:03;;;;;;;3.35;0.68;;;14.70;78.30;;;;;;5013926;28;20095;-76
2023/10/19 01:17:31;;;;;;;2.10;0.60;;;14.70;78.30;;;;;;5014099;28;20508;-76
2023/10/19 01:19:58;;;;;;;2.83;0.68;;;14.70;78.30;;;;;;5004778;28;20470;-76
2023/10/19 01:22:26;;;;;;;3.88;0.85;;;14.70;78.30;;;;;;5016580;28;20218;-77
2023/10/19 01:24:54;;;;;;;3.03;0.60;;;14.70;78.30;;;;;;4996576;28;20072;-77
2023/10/19 01:27:20;;;;;;;3.20;1.52;;;14.70;78.40;;;;;;5016533;28;20604;-76
2023/10/19 01:29:46;;;;;;;2.97;0.70;;;14.70;78.40;;;;;;5014442;28;20030;-76
2023/10/19 01:32:15;;;;;;;3.13;0.68;;;14.60;78.20;;;;;;5018944;28;20045;-76
2023/10/19 01:34:41;;;;;;;1.88;0.70;;;14.70;78.40;;;;;;5020059;28;20037;-76
2023/10/19 01:37:07;;;;;;;3.85;0.75;;;14.70;78.50;;;;;;5016497;28;21037;-77
2023/10/19 01:39:37;;;;;;;1.83;0.70;;;14.70;78.50;;;;;;5026085;28;20536;-76
2023/10/19 01:42:04;;;;;;;2.03;0.80;;;14.70;78.50;;;;;;5019366;28;20030;-76
2023/10/19 01:44:31;;;;;;;5.65;0.95;;;14.70;79.10;;;;;;5017198;28;20032;-76
2023/10/19 01:46:57;;;;;;;3.78;0.80;;;14.70;78.60;;;;;;5015287;28;20025;-76
2023/10/19 01:49:26;;;;;;;1.73;0.52;;;14.70;78.70;;;;;;5013962;28;20369;-76
2023/10/19 01:51:53;;;;;;;2.55;0.55;;;14.70;78.70;;;;;;5014774;28;20401;-76
2023/10/19 01:54:24;;;;;;;1.30;0.40;;;14.70;78.80;;;;;;5013517;28;20040;-77
2023/10/19 01:56:54;;;;;;;2.00;0.60;;;14.70;78.80;;;;;;4997947;28;20064;-77
2023/10/19 01:59:27;;;;;;;3.70;0.77;;;14.70;78.80;;;;;;5014677;28;20113;-77
2023/10/19 02:01:56;;;;;;;2.33;0.77;;;14.70;78.80;;;;;;5007588;28;20095;-77
2023/10/19 02:04:22;;;;;;;2.22;0.70;;;14.60;78.70;;;;;;5014445;28;20037;-77
2023/10/19 02:06:52;;;;;;;2.53;0.70;;;14.60;78.70;;;;;;5007080;28;20048;-77
2023/10/19 02:09:25;;;;;;;1.45;0.77;;;14.60;78.80;;;;;;5012671;28;20037;-78
2023/10/19 02:11:58;;;;;;;;;;;14.60;78.80;;;;;;5017114;28;20104;-78
2023/10/19 02:14:30;;;;;;;2.58;0.75;;;14.60;78.80;;;;;;5007787;28;19920;-77
2023/10/19 02:16:58;;;;;;;3.10;0.70;;;14.70;78.80;;;;;;5019590;28;20452;-78
2023/10/19 02:19:26;;;;;;;1.95;0.60;;;14.60;78.70;;;;;;5008240;28;20041;-76
2023/10/19 02:21:53;;;;;;;2.83;0.60;;;14.60;78.70;;;;;;5013814;28;20033;-76
2023/10/19 02:24:20;;;;;;;0.80;0.50;;;14.50;78.60;;;;;;5021147;28;20063;-76
2023/10/19 02:26:51;;;;;;;9.27;0.80;;;14.60;78.90;;;;;;5015726;28;20053;-76
2023/10/19 02:29:17;;;;;;;2.65;0.55;;;14.50;78.80;;;;;;5014487;28;20198;-76
2023/10/19 02:31:43;;;;;;;2.35;0.57;;;14.50;78.90;;;;;;5007815;28;20042;-77
2023/10/19 02:34:14;;;;;;;2.13;0.73;;;14.60;79.10;;;;;;4993836;28;20037;-78
2023/10/19 02:36:45;;;;;;;1.77;0.60;;;14.50;79.00;;;;;;5014029;28;20045;-77
2023/10/19 02:39:14;;;;;;;4.18;0.70;;;14.50;79.00;;;;;;5011962;28;20486;-77
2023/10/19 02:41:42;;;;;;;2.30;0.65;;;14.50;79.10;;;;;;5003274;28;20026;-79
2023/10/19 02:46:46;;;;;;;5.40;1.00;;;14.60;79.30;;;;;;5017486;28;20049;-75
2023/10/19 02:49:13;;;;;;;3.28;1.00;;;14.60;79.30;;;;;;5008898;28;20190;-76
2023/10/19 02:51:44;;;;;;;5.82;2.35;;;14.60;79.40;;;;;;4996739;28;20025;-76
2023/10/19 02:54:21;;;;;;;2.75;0.90;;;14.60;79.40;;;;;;5010634;28;20564;-76
2023/10/19 02:56:49;;;;;;;8.60;1.42;;;14.60;79.30;;;;;;5011915;28;20048;-76
2023/10/19 02:59:16;;;;;;;5.25;1.25;;;14.60;79.30;;;;;;5001206;28;20048;-76
2023/10/19 03:01:46;;;;;;;5.43;1.52;;;14.60;79.40;;;;;;5021781;28;20384;-76
2023/10/19 03:04:12;;;;;;;3.40;1.10;;;14.60;79.40;;;;;;5016310;28;20049;-77
2023/10/19 03:06:40;;;;;;;3.50;1.40;;;14.70;80.10;;;;;;5015486;28;20072;-76
2023/10/19 03:09:15;;;;;;;6.53;1.55;;;14.70;79.60;;;;;;5015536;28;20049;-77
2023/10/19 03:11:44;;;;;;;5.65;1.60;;;14.70;79.70;;;;;;5018542;28;20331;-77
2023/10/19 03:14:13;;;;;;;5.32;1.40;;;14.70;79.70;;;;;;5014238;28;20049;-77
2023/10/19 03:16:42;;;;;;;6.68;1.45;;;14.70;79.70;;;;;;5020187;28;20265;-77
2023/10/19 03:19:09;;;;;;;5.95;1.77;;;14.80;80.00;;;;;;5015347;28;20775;-77
2023/10/19 03:21:42;;;;;;;7.50;1.50;;;14.80;80.00;;;;;;5017220;28;20021;-76
2023/10/19 03:24:23;;;;;;;4.22;1.30;;;14.80;80.10;;;;;;5002051;28;20373;-77
2023/10/19 03:26:50;;;;;;;6.35;1.40;;;14.80;80.10;;;;;;4998256;28;20182;-77
2023/10/19 03:29:19;;;;;;;7.80;1.77;;;14.80;80.10;;;;;;5002302;28;20034;-77
2023/10/19 03:31:47;;;;;;;7.03;1.77;;;14.90;80.40;;;;;;5011137;28;20033;-76
2023/10/19 03:34:16;;;;;;;7.90;1.60;;;14.90;80.40;;;;;;5018062;28;20040;-76
2023/10/19 03:36:43;;;;;;;7.97;1.80;;;14.90;80.40;;;;;;5017570;28;20033;-77
2023/10/19 03:39:13;;;;;;;5.68;1.52;;;14.90;80.40;;;;;;5015433;28;20072;-77
2023/10/19 03:41:42;;;;;;;9.55;1.92;;;14.90;80.50;;;;;;5001718;28;20048;-76
2023/10/19 03:44:24;;;;;;;10.88;2.15;;;15.00;80.70;;;;;;5011736;28;20385;-76
2023/10/19 03:46:57;;;;;;;10.30;1.92;;;15.00;80.70;;;;;;5012809;28;20037;-76
2023/10/19 03:49:30;;;;;;;5.05;2.30;;;15.00;80.70;;;;;;5007506;28;20057;-76
2023/10/19 03:52:00;;;;;;;8.27;1.77;;;15.00;80.70;;;;;;5012214;28;20042;-76
2023/10/19 03:54:27;;;;;;;8.13;1.70;;;15.00;80.70;;;;;;5010489;28;20043;-77
2023/10/19 03:57:01;;;;;;;6.72;1.98;;;15.10;80.90;;;;;;5009928;28;20048;-76
2023/10/19 03:59:33;;;;;;;6.35;2.20;;;15.10;80.90;;;;;;5018469;28;21069;-76
2023/10/19 04:02:00;;;;;;;7.88;1.70;;;15.10;80.90;;;;;;5021958;28;20061;-76
2023/10/19 04:04:29;;;;;;;5.45;1.60;;;15.10;80.90;;;;;;5013190;28;20500;-76
2023/10/19 04:06:58;;;;;;;5.93;1.42;;;15.20;81.10;;;;;;5005442;28;20390;-75
2023/10/19 04:09:30;;;;;;;;;;;15.20;81.10;;;;;;5013445;28;20059;-76
2023/10/19 04:11:57;;;;;;;6.70;1.30;;;15.20;81.10;;;;;;5016111;28;19932;-76
2023/10/19 04:14:23;;;;;;;7.75;1.65;;;15.20;81.30;;;;;;5015212;28;20033;-76
2023/10/19 04:16:49;;;;;;;7.75;1.70;;;15.20;80.90;;;;;;5015919;28;20037;-76
2023/10/19 04:19:16;;;;;;;6.05;1.20;;;15.30;81.10;;;;;;5012263;28;20033;-76
2023/10/19 04:21:46;;;;;;;5.72;1.20;;;15.30;81.20;;;;;;5015155;28;20237;-76
2023/10/19 04:24:14;;;;;;;4.15;1.10;;;15.30;81.20;;;;;;5019382;28;20045;-76
2023/10/19 04:26:40;;;;;;;5.78;1.70;;;15.30;81.20;;;;;;5010306;28;20026;-77
2023/10/19 04:29:10;;;;;;;4.22;1.30;;;15.40;81.40;;;;;;5017775;28;20041;-76
2023/10/19 04:31:54;;;;;;;3.85;1.23;;;15.40;81.40;;;;;;5012576;28;20130;-76
2023/10/19 04:34:21;;;;;;;3.95;1.25;;;15.40;81.50;;;;;;5017242;28;20053;-76
2023/10/19 04:36:48;;;;;;;4.72;1.35;;;15.40;81.40;;;;;;5012488;28;20623;-76
2023/10/19 04:39:14;;;;;;;5.93;0.90;;;15.40;81.50;;;;;;5014448;28;20058;-76
2023/10/19 04:41:41;;;;;;;3.72;0.80;;;15.40;81.50;;;;;;5017513;28;20512;-76
2023/10/19 04:44:08;;;;;;;4.45;1.00;;;15.40;81.60;;;;;;5010944;28;20075;-76
2023/10/19 04:46:34;;;;;;;2.67;0.77;;;15.50;81.80;;;;;;5008003;28;20029;-76
2023/10/19 04:49:00;;;;;;;1.33;0.95;;;15.50;81.80;;;;;;5009345;28;20602;-75
2023/10/19 04:51:28;;;;;;;3.50;0.88;;;15.40;81.70;;;;;;5009853;28;20116;-77
2023/10/19 04:53:55;;;;;;;4.93;0.90;;;15.50;81.90;;;;;;5004968;28;20080;-76
2023/10/19 04:56:21;;;;;;;3.72;1.15;;;15.50;81.80;;;;;;4998560;28;20029;-76
2023/10/19 04:58:47;;;;;;;2.88;0.80;;;15.50;81.80;;;;;;5013085;28;20111;-76
2023/10/19 05:01:14;;;;;;;5.60;1.05;;;15.50;81.90;;;;;;5014869;28;20025;-77
2023/10/19 05:03:41;;;;;;;3.83;1.70;;;15.50;81.80;;;;;;5011361;28;20321;-76
2023/10/19 05:06:09;;;;;;;2.83;1.02;;;15.60;82.00;;;;;;5026657;28;20073;-76
2023/10/19 05:08:36;;;;;;;4.32;1.08;;;15.50;81.80;;;;;;5013641;28;20811;-76
2023/10/19 05:11:03;;;;;;;3.47;1.40;;;15.50;81.80;;;;;;5018280;28;20095;-76
2023/10/19 05:13:30;;;;;;;4.30;1.08;;;15.50;81.90;;;;;;5015602;28;20038;-76
2023/10/19 05:15:58;;;;;;;2.72;0.93;;;15.60;82.00;;;;;;5013197;28;20126;-76
2023/10/19 05:18:25;;;;;;;4.07;1.00;;;15.60;82.00;;;;;;5013610;28;20104;-76
2023/10/19 05:20:55;;;;;;;5.38;0.77;;;15.60;82.00;;;;;;5012143;28;20025;-75
2023/10/19 05:23:23;;;;;;;7.03;1.02;;;15.60;82.00;;;;;;5015150;28;20048;-76
2023/10/19 05:25:53;;;;;;;4.03;1.08;;;15.60;82.00;;;;;;5014154;28;20030;-76
2023/10/19 05:28:21;;;;;;;3.92;1.13;;;15.60;82.00;;;;;;5014892;28;20038;-75
2023/10/19 05:30:49;;;;;;;6.88;1.23;;;15.60;82.00;;;;;;5010069;28;20678;-76
2023/10/19 05:33:15;;;;;;;5.40;1.40;;;15.60;82.00;;;;;;5014290;28;20397;-76
2023/10/19 05:35:41;;;;;;;3.30;0.98;;;15.60;82.00;;;;;;5014832;28;20036;-77
2023/10/19 05:38:07;;;;;;;3.92;1.60;;;15.60;82.00;;;;;;5019180;28;20259;-77
2023/10/19 05:40:35;;;;;;;6.32;0.93;;;15.60;82.00;;;;;;5009770;28;20042;-76
2023/10/19 05:43:02;;;;;;;5.65;0.85;;;15.60;82.60;;;;;;5012516;28;20167;-76
2023/10/19 05:45:28;;;;;;;7.57;1.55;;;15.60;82.10;;;;;;5008240;28;20053;-77
2023/10/19 05:47:58;;;;;;;8.50;1.35;;;15.70;82.30;;;;;;5014581;28;20098;-77
2023/10/19 05:50:24;;;;;;;4.55;1.20;;;15.60;82.20;;;;;;5013622;28;20033;-76
2023/10/19 05:52:51;;;;;;;7.55;1.75;;;15.60;82.20;;;;;;5010838;28;20033;-77
2023/10/19 05:55:18;;;;;;;14.52;4.15;;;15.60;82.10;;;;;;5013645;28;20030;-77
2023/10/19 05:57:44;;;;;;;16.10;3.22;;;15.60;82.20;;;;;;5014666;28;20029;-76
2023/10/19 06:00:15;;;;;;;11.13;2.75;;;15.60;82.30;;;;;;5009568;28;20048;-76
2023/10/19 06:02:47;;;;;;;11.32;2.03;;;15.70;82.50;;;;;;5010674;28;20037;-75
2023/10/19 06:05:17;;;;;;;11.63;2.65;;;15.70;82.40;;;;;;5007730;28;20022;-76
2023/10/19 06:07:47;;;;;;;10.48;2.58;;;15.70;82.40;;;;;;5006915;28;20037;-75
2023/10/19 06:10:16;;;;;;;9.93;2.72;;;15.70;82.40;;;;;;5006474;28;20034;-77
2023/10/19 06:12:46;;;;;;;12.52;2.85;;;15.70;82.30;;;;;;5009316;28;20510;-77
2023/10/19 06:15:13;;;;;;;12.27;2.25;;;15.70;82.30;;;;;;5012321;28;20338;-76
2023/10/19 06:17:40;;;;;;;11.27;2.42;;;15.70;82.30;;;;;;5009285;28;20036;-78
2023/10/19 06:20:23;;;;;;;11.95;2.67;;;15.70;82.30;;;;;;5006864;28;20047;-74
2023/10/19 06:23:04;;;;;;;14.27;3.13;;;15.70;82.40;;;;;;5010321;28;20042;-75
2023/10/19 06:25:31;;;;;;;11.88;2.63;;;15.70;82.40;;;;;;5001621;28;20033;-75
2023/10/19 06:27:57;;;;;;;11.95;3.13;;;15.70;82.30;;;;;;4993812;28;20045;-76
2023/10/19 06:30:23;;;;;;;12.18;2.63;;;15.70;82.40;;;;;;5013924;28;20045;-75
2023/10/19 06:32:52;;;;;;;12.88;2.47;;;15.70;82.40;;;;;;5010357;28;20520;-74
2023/10/19 06:35:19;;;;;;;10.88;2.85;;;15.70;82.40;;;;;;5014133;28;20022;-75
2023/10/19 06:37:46;;;;;;;10.70;2.55;;;15.70;82.40;;;;;;5017799;28;20056;-75
2023/10/19 06:40:16;;;;;;;12.65;3.13;;;15.60;82.20;;;;;;5017956;28;20049;-74
2023/10/19 06:42:47;;;;;;;12.55;3.33;;;15.60;82.30;;;;;;5020571;28;20060;-74
2023/10/19 06:45:13;;;;;;;15.15;2.88;;;15.60;82.30;;;;;;5011697;28;20033;-75
2023/10/19 06:47:42;;;;;;;11.10;2.92;;;15.60;82.30;;;;;;5019146;28;20107;-74
2023/10/19 06:50:10;;;;;;;11.32;2.63;;;15.60;82.30;;;;;;5020868;28;20402;-74
2023/10/19 06:52:37;;;;;;;12.52;2.28;;;15.60;82.40;;;;;;4993423;28;20026;-73
2023/10/19 06:55:04;;;;;;;13.85;3.42;;;15.60;82.40;;;;;;5015380;28;20029;-74
2023/10/19 06:57:34;;;;;;;13.85;2.38;;;15.60;82.40;;;;;;5020884;28;20033;-74
2023/10/19 07:00:10;;;;;;;14.30;3.40;;;15.60;82.50;;;;;;5014419;28;20101;-75
2023/10/19 07:02:37;;;;;;;11.27;3.25;;;15.60;82.50;;;;;;5011120;28;20474;-75
2023/10/19 07:05:03;;;;;;;11.73;2.80;;;15.60;82.50;;;;;;5018582;28;20107;-76
2023/10/19 07:07:29;;;;;;;12.65;2.90;;;15.60;82.60;;;;;;5014825;28;20075;-75
2023/10/19 07:09:57;;;;;;;11.98;3.00;;;15.60;82.60;;;;;;5018016;28;20457;-76
2023/10/19 07:12:23;;;;;;;10.63;2.60;;;15.60;82.60;;;;;;5016343;28;20029;-76
2023/10/19 07:14:49;;;;;;;12.43;2.63;;;15.60;82.60;;;;;;5019353;28;20408;-76
2023/10/19 07:17:15;;;;;;;13.13;3.22;;;15.60;82.60;;;;;;5010006;28;20052;-75
2023/10/19 07:19:44;;;;;;;10.40;2.47;;;15.60;82.70;;;;;;5011152;28;20476;-73
2023/10/19 07:22:10;;;;;;;14.40;2.70;;;15.70;82.90;;;;;;5012257;28;20811;-75
2023/10/19 07:24:38;;;;;;;14.02;2.60;;;15.70;82.80;;;;;;5016411;28;20033;-75
2023/10/19 07:27:04;;;;;;;16.02;3.10;;;15.70;82.90;;;;;;5012121;28;20026;-75
2023/10/19 07:29:35;;;;;;;14.05;2.60;;;15.70;82.80;;;;;;5005164;28;20500;-74
2023/10/19 07:32:02;;;;;;;10.18;2.80;;;15.70;82.90;;;;;;5011190;28;20037;-75
2023/10/19 07:34:34;;;;;;;11.40;2.88;;;15.70;82.90;;;;;;5015615;28;20060;-76
2023/10/19 07:37:00;;;;;;;13.23;2.88;;;15.70;82.80;;;;;;5019120;28;20048;-75
2023/10/19 07:39:29;;;;;;;14.90;3.20;;;15.80;83.00;;;;;;4999575;28;20084;-75
2023/10/19 07:41:56;;;;;;;20.45;6.03;;;15.70;82.90;;;;;;5018480;28;20544;-75
2023/10/19 07:44:22;;;;;;;13.68;3.47;;;15.80;83.00;;;;;;5013784;28;20748;-75
2023/10/19 07:46:49;;;;;;;16.08;3.90;;;15.80;83.00;;;;;;5017757;28;20021;-75
2023/10/19 07:49:15;;;;;;;20.27;3.58;;;15.90;83.20;;;;;;5018589;28;20049;-76
2023/10/19 07:51:47;;;;;;;13.15;2.80;;;15.90;83.20;;;;;;5017680;28;20473;-75
2023/10/19 07:54:15;;;;;;;12.23;3.20;;;15.90;83.80;;;;;;5011203;28;21041;-76
2023/10/19 07:56:42;;;;;;;12.30;3.40;;;15.90;83.20;;;;;;5015553;28;20034;-75
2023/10/19 07:59:08;;;;;;;11.73;2.63;;;16.00;83.40;;;;;;5016717;28;20037;-76
2023/10/19 08:01:34;;;;;;;16.98;3.75;;;16.00;83.30;;;;;;5015151;28;20257;-76
2023/10/19 08:04:00;;;;;;;14.35;3.47;;;16.00;83.30;;;;;;5009575;28;20423;-76
2023/10/19 08:06:26;;;;;;;12.25;2.58;;;16.10;83.40;;;;;;5015751;28;20045;-76
2023/10/19 08:08:53;;;;;;;9.18;3.13;;;16.10;83.30;;;;;;5012975;28;20049;-76
2023/10/19 08:11:19;;;;;;;14.35;3.40;;;16.20;83.50;;;;;;5012476;28;20035;-76
2023/10/19 08:13:45;;;;;;;12.10;3.53;;;16.20;83.50;;;;;;5016098;28;20205;-76
2023/10/19 08:16:12;;;;;;;13.90;3.83;;;16.20;83.40;;;;;;5018616;28;20037;-75
2023/10/19 08:18:37;;;;;;;13.50;3.05;;;16.30;83.50;;;;;;5013662;28;20144;-75
2023/10/19 08:21:04;;;;;;;16.48;3.22;;;16.30;83.50;;;;;;5019277;28;20037;-75
2023/10/19 08:23:31;;;;;;;14.88;3.72;;;16.30;83.40;;;;;;5017454;28;20041;-76
2023/10/19 08:25:58;;;;;;;11.10;2.97;;;16.40;83.50;;;;;;5022732;28;20033;-75
2023/10/19 08:28:24;;;;;;;14.23;3.42;;;16.40;83.50;;;;;;5019588;28;20041;-75
2023/10/19 08:30:56;;;;;;;16.88;3.40;;;16.50;83.70;;;;;;5018573;28;20028;-75
2023/10/19 08:33:25;;;;;;;14.65;2.75;;;16.50;83.60;;;;;;5018503;28;20128;-75
2023/10/19 08:35:59;;;;;;;12.55;3.03;;;16.60;83.70;;;;;;5021973;28;20033;-75
2023/10/19 08:38:29;;;;;;;10.93;2.88;;;16.70;83.70;;;;;;5038437;28;20049;-75
2023/10/19 08:40:56;;;;;;;10.93;3.15;;;16.80;83.60;;;;;;5001666;28;20087;-76
2023/10/19 08:43:24;;;;;;;10.50;2.42;;;17.00;83.60;;;;;;5007300;28;20591;-74
2023/10/19 08:45:50;;;;;;;12.05;3.80;;;17.20;83.50;;;;;;4989876;28;20053;-76
2023/10/19 08:48:16;;;;;;;13.60;3.08;;;17.30;83.30;;;;;;5013487;28;20869;-75
2023/10/19 08:50:43;;;;;;;11.48;4.00;;;17.50;83.30;;;;;;5017622;28;20511;-75
2023/10/19 08:53:10;;;;;;;12.85;2.70;;;17.70;83.20;;;;;;5014862;28;20077;-76
2023/10/19 08:55:36;;;;;;;10.70;2.80;;;17.80;83.00;;;;;;5013932;28;20030;-77
2023/10/19 08:58:05;;;;;;;10.10;3.05;;;17.80;82.80;;;;;;5021828;28;20037;-75
2023/10/19 09:00:47;;;;;;;10.23;2.58;;;17.90;82.80;;;;;;5015575;28;20159;-76
2023/10/19 09:03:13;;;;;;;10.20;2.35;;;17.90;82.60;;;;;;5012851;28;20040;-75
2023/10/19 09:05:41;;;;;;;13.15;3.25;;;18.00;82.70;;;;;;5006087;28;20021;-75
2023/10/19 09:08:09;;;;;;;8.55;2.03;;;18.00;82.60;;;;;;5016141;28;20045;-76
2023/10/19 09:10:39;;;;;;;10.82;2.85;;;18.00;82.50;;;;;;4994535;28;20032;-76
2023/10/19 09:13:09;;;;;;;9.88;2.42;;;18.00;82.40;;;;;;5013564;28;20025;-76
2023/10/19 09:15:37;;;;;;;11.13;2.63;;;18.10;82.40;;;;;;5010415;28;20124;-75
2023/10/19 09:18:18;;;;;;;7.50;2.08;;;18.10;82.30;;;;;;5007759;28;20029;-77
2023/10/19 09:21:07;;;;;;;12.68;3.60;;;18.10;82.20;;;;;;5017458;28;20201;-75
2023/10/19 09:23:36;;;;;;;10.90;2.42;;;18.20;82.20;;;;;;5021823;28;20542;-75
2023/10/19 09:26:07;;;;;;;14.60;3.08;;;18.20;82.10;;;;;;5011432;28;20046;-76
2023/10/19 09:28:37;;;;;;;10.77;2.80;;;18.20;81.90;;;;;;5011583;28;20037;-76
2023/10/19 09:31:04;;;;;;;7.93;2.38;;;18.20;81.80;;;;;;5011089;28;20033;-76
2023/10/19 09:33:34;;;;;;;12.75;2.25;;;18.20;81.80;;;;;;5015797;28;20500;-76
2023/10/19 09:36:02;;;;;;;10.70;2.42;;;18.20;81.70;;;;;;5007217;28;20044;-77
2023/10/19 09:38:28;;;;;;;10.40;2.63;;;18.20;81.60;;;;;;5016636;28;20048;-76
2023/10/19 09:41:00;;;;;;;8.60;2.10;;;18.20;81.50;;;;;;5019866;28;20026;-77
2023/10/19 09:43:46;;;;;;;8.50;2.05;;;18.20;81.50;;;;;;5014081;28;20044;-76
2023/10/19 09:46:21;;;;;;;6.13;2.25;;;18.20;81.40;;;;;;5013702;28;20067;-76
2023/10/19 09:48:48;;;;;;;10.57;2.72;;;18.20;81.40;;;;;;5014746;28;20045;-76
2023/10/19 09:51:17;;;;;;;6.80;1.77;;;18.20;81.30;;;;;;5016070;28;20037;-76
2023/10/19 09:53:49;;;;;;;10.45;2.63;;;18.30;81.40;;;;;;5013088;28;20116;-75
2023/10/19 09:56:30;;;;;;;9.48;2.38;;;18.40;81.60;;;;;;5017800;28;20040;-76
2023/10/19 09:59:09;;;;;;;8.48;2.33;;;18.40;81.40;;;;;;5022409;28;20091;-76
2023/10/19 10:02:13;;;;;;;7.28;2.15;;;18.60;81.50;;;;;;5009301;28;20287;-75
2023/10/19 10:04:40;;;;;;;7.18;1.90;;;18.70;81.20;;;;;;5014871;28;20029;-76
2023/10/19 10:07:09;;;;;;;7.30;1.98;;;18.80;81.10;;;;;;5019322;28;20052;-75
2023/10/19 10:09:43;;;;;;;8.23;2.10;;;18.90;81.00;;;;;;5020049;28;20087;-75
2023/10/19 10:12:21;;;;;;;6.75;2.42;;;19.00;80.90;;;;;;5003632;28;20029;-75
2023/10/19 10:15:05;;;;;;;10.20;2.28;;;19.10;80.80;;;;;;5019841;28;20035;-75
2023/10/19 10:17:37;;;;;;;6.95;2.03;;;19.10;80.60;;;;;;5011131;28;20033;-76
2023/10/19 10:20:13;;;;;;;7.82;3.22;;;19.10;80.40;;;;;;5015608;28;20516;-76
2023/10/19 10:22:41;;;;;;;9.52;2.63;;;19.20;80.40;;;;;;5018827;28;20025;-76
2023/10/19 10:25:07;;;;;;;5.55;1.92;;;19.20;80.20;;;;;;5020328;28;20079;-76
2023/10/19 10:27:50;;;;;;;8.88;2.20;;;19.20;80.00;;;;;;5017638;28;20664;-77
2023/10/19 10:30:17;;;;;;;6.43;1.80;;;19.20;79.90;;;;;;5018734;28;20955;-76
2023/10/19 10:32:43;;;;;;;6.38;2.03;;;19.20;79.80;;;;;;5010327;28;20200;-76
2023/10/19 10:35:09;;;;;;;7.68;2.00;;;19.20;79.80;;;;;;5018006;28;20465;-76
2023/10/19 10:37:39;;;;;;;7.30;2.20;;;19.30;79.80;;;;;;5017047;28;20056;-76
2023/10/19 10:40:06;;;;;;;8.88;2.85;;;19.30;79.70;;;;;;5017736;28;20151;-76
2023/10/19 10:42:34;;;;;;;8.98;2.90;;;19.30;79.60;;;;;;5001528;28;20124;-75
2023/10/19 10:45:02;;;;;;;6.40;1.80;;;19.40;79.60;;;;;;5012062;28;20041;-76
2023/10/19 10:47:29;;;;;;;6.25;2.47;;;19.40;79.40;;;;;;5006951;28;20133;-76
2023/10/19 10:50:00;;;;;;;9.25;2.08;;;19.50;79.40;;;;;;5014261;28;20033;-76
2023/10/19 10:52:31;;;;;;;10.35;3.05;;;19.50;79.10;;;;;;5012886;28;20401;-76
2023/10/19 10:54:59;;;;;;;4.15;1.75;;;19.60;79.20;;;;;;5016281;28;20108;-76
2023/10/19 10:57:32;;;;;;;6.57;1.90;;;19.70;79.20;;;;;;5012409;28;20099;-75
2023/10/19 11:00:04;;;;;;;7.63;2.35;;;19.70;78.80;;;;;;5018212;28;20049;-76
2023/10/19 11:02:30;;;;;;;4.22;1.55;;;19.80;78.80;;;;;;4990709;28;20021;-76
2023/10/19 11:04:57;;;;;;;8.82;2.67;;;19.80;78.70;;;;;;5012807;28;20041;-76
2023/10/19 11:07:24;;;;;;;7.88;2.25;;;19.90;78.60;;;;;;5019142;28;20587;-77
2023/10/19 11:09:50;;;;;;;10.15;2.08;;;19.90;78.50;;;;;;5011856;28;20371;-77
2023/10/19 11:12:16;;;;;;;6.72;2.60;;;20.00;78.60;;;;;;5018168;28;20520;-77
2023/10/19 11:14:57;;;;;;;9.88;2.92;;;20.00;78.50;;;;;;5021592;28;20052;-77
2023/10/19 11:17:28;;;;;;;8.05;2.65;;;20.00;78.20;;;;;;5016969;28;20032;-76
2023/10/19 11:19:59;;;;;;;7.68;2.08;;;20.10;78.30;;;;;;5015889;28;20048;-76
2023/10/19 11:22:28;;;;;;;9.30;1.65;;;20.20;78.30;;;;;;5009952;28;20029;-77
2023/10/19 11:24:56;;;;;;;8.18;2.05;;;20.20;78.10;;;;;;5024527;28;20060;-77
2023/10/19 11:27:26;;;;;;;6.65;1.90;;;20.30;78.00;;;;;;5011633;28;20448;-77
2023/10/19 11:29:57;;;;;;;5.00;1.77;;;20.40;77.90;;;;;;5022448;28;20245;-77
2023/10/19 11:32:27;;;;;;;7.68;2.00;;;20.50;77.80;;;;;;5015560;28;20041;-77
2023/10/19 11:34:54;;;;;;;9.50;2.25;;;20.60;77.80;;;;;;5015583;28;20034;-76
2023/10/19 11:37:20;;;;;;;7.78;1.73;;;20.60;77.50;;;;;;5014392;28;20079;-76
2023/10/19 11:39:46;;;;;;;6.18;1.75;;;20.60;77.30;;;;;;5019574;28;20107;-76
2023/10/19 11:42:13;;;;;;;7.72;1.50;;;20.60;77.10;;;;;;5019792;28;20122;-78
2023/10/19 11:44:40;;;;;;;6.28;1.63;;;20.60;77.00;;;;;;4998270;28;20120;-76
2023/10/19 11:47:06;;;;;;;8.68;2.58;;;20.60;76.90;;;;;;5017968;28;20838;-77
2023/10/19 11:49:32;;;;;;;7.78;1.52;;;20.70;77.00;;;;;;5022571;28;20037;-76
2023/10/19 11:51:58;;;;;;;7.60;2.13;;;20.70;76.90;;;;;;5015922;28;20469;-78
2023/10/19 11:54:26;;;;;;;3.35;1.20;;;20.70;76.70;;;;;;5028032;28;20056;-77
2023/10/19 11:56:53;;;;;;;4.10;1.30;;;20.70;76.60;;;;;;5023211;28;20026;-77
2023/10/19 11:59:19;;;;;;;6.07;1.80;;;20.70;76.50;;;;;;5021780;28;20516;-77
2023/10/19 12:01:44;;;;;;;11.13;3.78;;;20.70;76.40;;;;;;5021466;28;20037;-77
2023/10/19 12:04:10;;;;;;;5.82;1.40;;;20.70;76.40;;;;;;5012434;28;20114;-77
2023/10/19 12:06:36;;;;;;;6.60;2.05;;;20.80;76.40;;;;;;5024530;28;20021;-77
2023/10/19 12:09:14;;;;;;;6.90;1.48;;;20.80;76.60;;;;;;5023487;28;20543;-77
2023/10/19 12:11:44;;;;;;;4.90;1.15;;;20.90;76.30;;;;;;5017639;28;20040;-77
2023/10/19 12:14:14;;;;;;;6.05;1.50;;;21.00;76.10;;;;;;5028467;28;20036;-75
2023/10/19 12:16:41;;;;;;;4.03;1.33;;;21.10;76.00;;;;;;5034806;28;20064;-75
2023/10/19 12:19:07;;;;;;;4.60;1.80;;;21.10;75.80;;;;;;5024584;28;20507;-75
2023/10/19 12:21:33;;;;;;;6.72;1.35;;;21.10;75.60;;;;;;5025203;28;20566;-77
2023/10/19 12:24:01;;;;;;;4.78;1.17;;;21.10;75.50;;;;;;5017760;28;20505;-77
2023/10/19 12:26:29;;;;;;;4.53;1.17;;;21.20;75.60;;;;;;5015304;28;20038;-77
2023/10/19 12:28:56;;;;;;;2.95;1.08;;;21.10;75.30;;;;;;5017570;28;20049;-76
2023/10/19 12:31:23;;;;;;;4.00;1.42;;;21.10;75.20;;;;;;5003660;28;20105;-77
2023/10/19 12:33:49;;;;;;;6.53;2.15;;;21.10;75.10;;;;;;5014812;28;20036;-76
2023/10/19 12:38:51;;;;;;;4.13;1.20;;;21.10;75.00;;;;;;5018516;28;20642;-75
2023/10/19 12:41:19;;;;;;;4.43;1.10;;;21.20;75.00;;;;;;5014219;28;20065;-76
2023/10/19 12:43:48;;;;;;;5.32;1.23;;;21.20;74.80;;;;;;5012051;28;20165;-77
2023/10/19 12:46:15;;;;;;;8.55;1.80;;;21.30;74.90;;;;;;5013588;28;20049;-76
2023/10/19 12:48:43;;;;;;;7.32;1.52;;;21.30;74.80;;;;;;5018445;28;20140;-76
2023/10/19 12:51:11;;;;;;;6.00;1.70;;;21.30;74.80;;;;;;5013618;28;20048;-77
2023/10/19 12:53:41;;;;;;;7.53;1.55;;;21.20;74.60;;;;;;5023621;28;20047;-76
2023/10/19 12:56:10;;;;;;;5.25;1.40;;;21.20;74.70;;;;;;5013958;28;20047;-76
2023/10/19 12:58:37;;;;;;;4.55;1.92;;;21.10;74.60;;;;;;5019052;28;20508;-75
2023/10/19 13:01:05;;;;;;;6.03;1.80;;;21.00;74.60;;;;;;5010523;28;20079;-76
2023/10/19 13:03:36;;;;;;;8.38;1.35;;;20.90;74.60;;;;;;5008593;28;20488;-76
2023/10/19 13:06:07;;;;;;;6.88;1.38;;;20.90;74.80;;;;;;5011395;28;20082;-77